sensor_id;sensor_type;location;lat;lon;timestamp;temperature;humidity
70421;SHT31;57848;51.938;15.520;2023-07-20T00:02:15;17.22;88.21
70421;SHT31;57848;51.938;15.520;2023-07-20T00:04:40;17.17;86.99
70421;SHT31;57848;51.938;15.520;2023-07-20T00:07:05;17.35;87.22
70421;SHT31;57848;51.938;15.520;2023-07-20T00:09:31;17.38;86.24
70421;SHT31;57848;51.938;15.520;2023-07-20T00:11:56;17.31;86.90
70421;SHT31;57848;51.938;15.520;2023-07-20T00:14:21;17.19;86.26
70421;SHT31;57848;51.938;15.520;2023-07-20T00:16:49;17.10;87.36
70421;SHT31;57848;51.938;15.520;2023-07-20T00:19:22;17.15;87.98
70421;SHT31;57848;51.938;15.520;2023-07-20T00:21:48;17.25;87.87
70421;SHT31;57848;51.938;15.520;2023-07-20T00:24:13;17.24;87.96
70421;SHT31;57848;51.938;15.520;2023-07-20T00:26:38;17.28;87.95
70421;SHT31;57848;51.938;15.520;2023-07-20T00:29:04;17.28;88.16
70421;SHT31;57848;51.938;15.520;2023-07-20T00:31:29;17.24;88.53
70421;SHT31;57848;51.938;15.520;2023-07-20T00:33:55;17.19;88.36
70421;SHT31;57848;51.938;15.520;2023-07-20T00:36:21;17.32;86.60
70421;SHT31;57848;51.938;15.520;2023-07-20T00:38:46;17.22;87.99
70421;SHT31;57848;51.938;15.520;2023-07-20T00:41:12;17.35;88.39
70421;SHT31;57848;51.938;15.520;2023-07-20T00:43:39;17.35;87.60
70421;SHT31;57848;51.938;15.520;2023-07-20T00:46:04;17.36;87.92
70421;SHT31;57848;51.938;15.520;2023-07-20T00:48:31;17.36;87.98
70421;SHT31;57848;51.938;15.520;2023-07-20T00:50:58;17.36;86.86
70421;SHT31;57848;51.938;15.520;2023-07-20T00:53:24;17.35;86.01
70421;SHT31;57848;51.938;15.520;2023-07-20T00:55:49;17.39;86.55
70421;SHT31;57848;51.938;15.520;2023-07-20T00:58:14;17.31;87.42
70421;SHT31;57848;51.938;15.520;2023-07-20T01:00:40;17.28;87.71
70421;SHT31;57848;51.938;15.520;2023-07-20T01:03:05;17.34;87.81
70421;SHT31;57848;51.938;15.520;2023-07-20T01:05:42;17.36;86.74
70421;SHT31;57848;51.938;15.520;2023-07-20T01:08:24;17.11;87.28
70421;SHT31;57848;51.938;15.520;2023-07-20T01:11:05;17.17;84.39
70421;SHT31;57848;51.938;15.520;2023-07-20T01:13:32;17.08;86.83
70421;SHT31;57848;51.938;15.520;2023-07-20T01:16:01;17.12;86.43
70421;SHT31;57848;51.938;15.520;2023-07-20T01:18:27;17.19;86.61
70421;SHT31;57848;51.938;15.520;2023-07-20T01:20:59;17.10;87.92
70421;SHT31;57848;51.938;15.520;2023-07-20T01:29:33;17.25;87.85
70421;SHT31;57848;51.938;15.520;2023-07-20T01:32:04;17.28;88.19
70421;SHT31;57848;51.938;15.520;2023-07-20T01:34:32;17.29;87.99
70421;SHT31;57848;51.938;15.520;2023-07-20T01:37:01;17.31;86.30
70421;SHT31;57848;51.938;15.520;2023-07-20T01:39:27;17.24;87.72
70421;SHT31;57848;51.938;15.520;2023-07-20T01:41:53;17.22;88.19
70421;SHT31;57848;51.938;15.520;2023-07-20T01:44:18;17.27;87.49
70421;SHT31;57848;51.938;15.520;2023-07-20T01:46:43;17.17;84.50
70421;SHT31;57848;51.938;15.520;2023-07-20T01:49:09;17.07;85.98
70421;SHT31;57848;51.938;15.520;2023-07-20T01:51:34;17.06;84.85
70421;SHT31;57848;51.938;15.520;2023-07-20T01:53:59;16.94;84.70
70421;SHT31;57848;51.938;15.520;2023-07-20T01:56:25;16.90;85.53
70421;SHT31;57848;51.938;15.520;2023-07-20T01:58:50;16.74;87.21
70421;SHT31;57848;51.938;15.520;2023-07-20T02:01:15;16.70;86.80
70421;SHT31;57848;51.938;15.520;2023-07-20T02:03:41;16.60;87.76
70421;SHT31;57848;51.938;15.520;2023-07-20T02:06:06;16.59;87.79
70421;SHT31;57848;51.938;15.520;2023-07-20T02:08:31;16.42;88.38
70421;SHT31;57848;51.938;15.520;2023-07-20T02:10:57;16.47;88.47
70421;SHT31;57848;51.938;15.520;2023-07-20T02:13:22;16.55;88.13
70421;SHT31;57848;51.938;15.520;2023-07-20T02:15:48;16.55;87.61
70421;SHT31;57848;51.938;15.520;2023-07-20T02:18:14;16.56;87.33
70421;SHT31;57848;51.938;15.520;2023-07-20T02:20:41;16.50;87.44
70421;SHT31;57848;51.938;15.520;2023-07-20T02:23:06;16.52;87.77
70421;SHT31;57848;51.938;15.520;2023-07-20T02:25:31;16.49;87.99
70421;SHT31;57848;51.938;15.520;2023-07-20T02:27:57;16.57;87.39
70421;SHT31;57848;51.938;15.520;2023-07-20T02:30:23;16.55;87.68
70421;SHT31;57848;51.938;15.520;2023-07-20T02:32:48;16.52;88.12
70421;SHT31;57848;51.938;15.520;2023-07-20T02:35:16;16.49;89.07
70421;SHT31;57848;51.938;15.520;2023-07-20T02:37:42;16.46;88.82
70421;SHT31;57848;51.938;15.520;2023-07-20T02:40:08;16.43;89.52
70421;SHT31;57848;51.938;15.520;2023-07-20T02:42:34;16.34;89.52
70421;SHT31;57848;51.938;15.520;2023-07-20T02:44:59;16.36;89.52
70421;SHT31;57848;51.938;15.520;2023-07-20T02:47:25;16.34;89.47
70421;SHT31;57848;51.938;15.520;2023-07-20T02:49:50;16.34;89.81
70421;SHT31;57848;51.938;15.520;2023-07-20T02:52:15;16.36;89.42
70421;SHT31;57848;51.938;15.520;2023-07-20T02:54:41;16.33;89.37
70421;SHT31;57848;51.938;15.520;2023-07-20T02:57:06;16.33;89.57
70421;SHT31;57848;51.938;15.520;2023-07-20T02:59:32;16.30;89.06
70421;SHT31;57848;51.938;15.520;2023-07-20T03:01:57;16.26;90.25
70421;SHT31;57848;51.938;15.520;2023-07-20T03:04:25;16.22;90.14
70421;SHT31;57848;51.938;15.520;2023-07-20T03:06:50;16.32;89.15
70421;SHT31;57848;51.938;15.520;2023-07-20T03:09:16;16.29;89.58
70421;SHT31;57848;51.938;15.520;2023-07-20T03:11:41;16.22;89.97
70421;SHT31;57848;51.938;15.520;2023-07-20T03:14:06;16.25;89.62
70421;SHT31;57848;51.938;15.520;2023-07-20T03:16:32;16.25;90.01
70421;SHT31;57848;51.938;15.520;2023-07-20T03:19:00;16.19;90.07
70421;SHT31;57848;51.938;15.520;2023-07-20T03:21:28;16.18;89.81
70421;SHT31;57848;51.938;15.520;2023-07-20T03:23:54;16.13;90.12
70421;SHT31;57848;51.938;15.520;2023-07-20T03:26:19;16.06;91.04
70421;SHT31;57848;51.938;15.520;2023-07-20T03:28:44;15.95;91.16
70421;SHT31;57848;51.938;15.520;2023-07-20T03:31:10;16.01;90.83
70421;SHT31;57848;51.938;15.520;2023-07-20T03:33:38;16.02;90.97
70421;SHT31;57848;51.938;15.520;2023-07-20T03:36:04;16.02;91.15
70421;SHT31;57848;51.938;15.520;2023-07-20T03:38:30;15.99;90.76
70421;SHT31;57848;51.938;15.520;2023-07-20T03:40:57;15.98;91.11
70421;SHT31;57848;51.938;15.520;2023-07-20T03:43:24;15.95;91.01
70421;SHT31;57848;51.938;15.520;2023-07-20T03:45:49;16.02;90.85
70421;SHT31;57848;51.938;15.520;2023-07-20T03:48:20;15.97;91.32
70421;SHT31;57848;51.938;15.520;2023-07-20T03:50:47;15.99;91.18
70421;SHT31;57848;51.938;15.520;2023-07-20T03:53:13;16.06;91.25
70421;SHT31;57848;51.938;15.520;2023-07-20T03:55:39;16.10;90.48
70421;SHT31;57848;51.938;15.520;2023-07-20T03:58:08;16.09;90.88
70421;SHT31;57848;51.938;15.520;2023-07-20T04:00:34;16.12;90.75
70421;SHT31;57848;51.938;15.520;2023-07-20T04:02:59;16.05;90.69
70421;SHT31;57848;51.938;15.520;2023-07-20T04:05:25;16.15;90.58
70421;SHT31;57848;51.938;15.520;2023-07-20T04:07:51;16.18;90.88
70421;SHT31;57848;51.938;15.520;2023-07-20T04:10:17;16.20;90.33
70421;SHT31;57848;51.938;15.520;2023-07-20T04:12:42;16.36;89.75
70421;SHT31;57848;51.938;15.520;2023-07-20T04:15:09;16.40;89.81
70421;SHT31;57848;51.938;15.520;2023-07-20T04:17:34;16.50;89.82
70421;SHT31;57848;51.938;15.520;2023-07-20T04:19:59;16.60;89.16
70421;SHT31;57848;51.938;15.520;2023-07-20T04:22:25;16.66;88.60
70421;SHT31;57848;51.938;15.520;2023-07-20T04:24:50;16.59;89.11
70421;SHT31;57848;51.938;15.520;2023-07-20T04:27:15;16.61;88.99
70421;SHT31;57848;51.938;15.520;2023-07-20T04:29:41;16.60;89.00
70421;SHT31;57848;51.938;15.520;2023-07-20T04:32:06;16.60;89.41
70421;SHT31;57848;51.938;15.520;2023-07-20T04:34:32;16.63;89.28
70421;SHT31;57848;51.938;15.520;2023-07-20T04:36:57;16.70;89.02
70421;SHT31;57848;51.938;15.520;2023-07-20T04:39:24;16.64;89.01
70421;SHT31;57848;51.938;15.520;2023-07-20T04:41:50;16.70;88.95
70421;SHT31;57848;51.938;15.520;2023-07-20T04:44:16;16.73;88.45
70421;SHT31;57848;51.938;15.520;2023-07-20T04:46:42;16.74;88.88
70421;SHT31;57848;51.938;15.520;2023-07-20T04:49:07;16.64;88.90
70421;SHT31;57848;51.938;15.520;2023-07-20T04:51:37;16.61;88.84
70421;SHT31;57848;51.938;15.520;2023-07-20T04:54:02;16.63;88.76
70421;SHT31;57848;51.938;15.520;2023-07-20T04:56:32;16.71;88.91
70421;SHT31;57848;51.938;15.520;2023-07-20T04:58:59;16.69;89.23
70421;SHT31;57848;51.938;15.520;2023-07-20T05:01:24;16.67;88.84
70421;SHT31;57848;51.938;15.520;2023-07-20T05:03:49;16.64;88.96
70421;SHT31;57848;51.938;15.520;2023-07-20T05:06:15;16.56;89.44
70421;SHT31;57848;51.938;15.520;2023-07-20T05:08:41;16.53;89.74
70421;SHT31;57848;51.938;15.520;2023-07-20T05:11:06;16.60;88.68
70421;SHT31;57848;51.938;15.520;2023-07-20T05:13:33;16.47;88.65
70421;SHT31;57848;51.938;15.520;2023-07-20T05:15:58;16.52;89.13
70421;SHT31;57848;51.938;15.520;2023-07-20T05:18:24;16.66;88.90
70421;SHT31;57848;51.938;15.520;2023-07-20T05:20:51;16.66;89.09
70421;SHT31;57848;51.938;15.520;2023-07-20T05:23:19;16.77;88.80
70421;SHT31;57848;51.938;15.520;2023-07-20T05:25:45;16.81;87.66
70421;SHT31;57848;51.938;15.520;2023-07-20T05:28:10;16.76;87.72
70421;SHT31;57848;51.938;15.520;2023-07-20T05:30:36;16.80;88.63
70421;SHT31;57848;51.938;15.520;2023-07-20T05:33:01;16.84;88.05
70421;SHT31;57848;51.938;15.520;2023-07-20T05:35:27;16.90;87.58
70421;SHT31;57848;51.938;15.520;2023-07-20T05:37:52;16.90;87.59
70421;SHT31;57848;51.938;15.520;2023-07-20T05:40:17;16.84;87.64
70421;SHT31;57848;51.938;15.520;2023-07-20T05:42:48;16.81;87.66
70421;SHT31;57848;51.938;15.520;2023-07-20T05:45:14;16.80;87.60
70421;SHT31;57848;51.938;15.520;2023-07-20T05:47:40;16.92;87.84
70421;SHT31;57848;51.938;15.520;2023-07-20T05:50:05;16.95;87.70
70421;SHT31;57848;51.938;15.520;2023-07-20T05:52:31;17.06;87.54
70421;SHT31;57848;51.938;15.520;2023-07-20T05:54:57;17.21;87.14
70421;SHT31;57848;51.938;15.520;2023-07-20T05:57:22;17.21;86.88
70421;SHT31;57848;51.938;15.520;2023-07-20T05:59:47;17.12;86.22
70421;SHT31;57848;51.938;15.520;2023-07-20T06:02:13;17.21;86.43
70421;SHT31;57848;51.938;15.520;2023-07-20T06:04:39;17.15;86.94
70421;SHT31;57848;51.938;15.520;2023-07-20T06:07:04;17.22;86.99
70421;SHT31;57848;51.938;15.520;2023-07-20T06:09:30;17.21;86.51
70421;SHT31;57848;51.938;15.520;2023-07-20T06:11:55;17.21;86.23
70421;SHT31;57848;51.938;15.520;2023-07-20T06:14:21;17.27;86.16
70421;SHT31;57848;51.938;15.520;2023-07-20T06:16:47;17.39;85.80
70421;SHT31;57848;51.938;15.520;2023-07-20T06:19:12;17.43;85.91
70421;SHT31;57848;51.938;15.520;2023-07-20T06:21:38;17.53;85.79
70421;SHT31;57848;51.938;15.520;2023-07-20T06:24:03;17.55;84.87
70421;SHT31;57848;51.938;15.520;2023-07-20T06:26:29;17.53;84.83
70421;SHT31;57848;51.938;15.520;2023-07-20T06:28:55;17.65;84.50
70421;SHT31;57848;51.938;15.520;2023-07-20T06:31:21;17.59;84.59
70421;SHT31;57848;51.938;15.520;2023-07-20T06:33:46;17.50;84.53
70421;SHT31;57848;51.938;15.520;2023-07-20T06:36:12;17.45;84.65
70421;SHT31;57848;51.938;15.520;2023-07-20T06:38:37;17.40;85.19
70421;SHT31;57848;51.938;15.520;2023-07-20T06:41:02;17.40;84.58
70421;SHT31;57848;51.938;15.520;2023-07-20T06:43:28;17.38;84.03
70421;SHT31;57848;51.938;15.520;2023-07-20T06:45:53;17.25;84.57
70421;SHT31;57848;51.938;15.520;2023-07-20T06:48:20;17.36;84.88
70421;SHT31;57848;51.938;15.520;2023-07-20T06:50:45;17.42;84.37
70421;SHT31;57848;51.938;15.520;2023-07-20T06:53:10;17.45;85.05
70421;SHT31;57848;51.938;15.520;2023-07-20T06:55:36;17.49;84.32
70421;SHT31;57848;51.938;15.520;2023-07-20T06:58:01;17.58;84.11
70421;SHT31;57848;51.938;15.520;2023-07-20T07:00:26;17.66;83.85
70421;SHT31;57848;51.938;15.520;2023-07-20T07:02:52;17.72;84.42
70421;SHT31;57848;51.938;15.520;2023-07-20T07:05:17;17.97;82.18
70421;SHT31;57848;51.938;15.520;2023-07-20T07:07:43;17.94;80.03
70421;SHT31;57848;51.938;15.520;2023-07-20T07:10:09;17.93;80.14
70421;SHT31;57848;51.938;15.520;2023-07-20T07:12:34;17.87;80.24
70421;SHT31;57848;51.938;15.520;2023-07-20T07:15:01;17.86;81.10
70421;SHT31;57848;51.938;15.520;2023-07-20T07:17:26;17.85;80.69
70421;SHT31;57848;51.938;15.520;2023-07-20T07:19:52;17.85;80.96
70421;SHT31;57848;51.938;15.520;2023-07-20T07:22:20;17.89;80.82
70421;SHT31;57848;51.938;15.520;2023-07-20T07:24:46;17.86;80.90
70421;SHT31;57848;51.938;15.520;2023-07-20T07:27:11;17.93;80.63
70421;SHT31;57848;51.938;15.520;2023-07-20T07:29:37;17.91;81.50
70421;SHT31;57848;51.938;15.520;2023-07-20T07:32:03;17.89;81.10
70421;SHT31;57848;51.938;15.520;2023-07-20T07:34:28;17.93;80.57
70421;SHT31;57848;51.938;15.520;2023-07-20T07:36:53;17.97;80.68
70421;SHT31;57848;51.938;15.520;2023-07-20T07:39:19;17.97;80.29
70421;SHT31;57848;51.938;15.520;2023-07-20T07:41:44;18.03;79.89
70421;SHT31;57848;51.938;15.520;2023-07-20T07:44:10;18.01;81.00
70421;SHT31;57848;51.938;15.520;2023-07-20T07:46:35;18.23;80.16
70421;SHT31;57848;51.938;15.520;2023-07-20T07:49:00;18.17;79.63
70421;SHT31;57848;51.938;15.520;2023-07-20T07:51:26;18.23;79.28
70421;SHT31;57848;51.938;15.520;2023-07-20T07:53:52;18.20;79.59
70421;SHT31;57848;51.938;15.520;2023-07-20T07:56:18;18.33;79.39
70421;SHT31;57848;51.938;15.520;2023-07-20T07:58:48;18.37;79.19
70421;SHT31;57848;51.938;15.520;2023-07-20T08:01:13;18.38;79.36
70421;SHT31;57848;51.938;15.520;2023-07-20T08:03:38;18.47;79.35
70421;SHT31;57848;51.938;15.520;2023-07-20T08:06:04;18.51;79.93
70421;SHT31;57848;51.938;15.520;2023-07-20T08:08:31;18.62;78.53
70421;SHT31;57848;51.938;15.520;2023-07-20T08:10:56;18.73;78.13
70421;SHT31;57848;51.938;15.520;2023-07-20T08:13:22;18.88;77.97
70421;SHT31;57848;51.938;15.520;2023-07-20T08:15:49;18.84;77.81
70421;SHT31;57848;51.938;15.520;2023-07-20T08:18:15;18.78;76.35
70421;SHT31;57848;51.938;15.520;2023-07-20T08:20:44;18.85;75.09
70421;SHT31;57848;51.938;15.520;2023-07-20T08:23:09;18.91;76.36
70421;SHT31;57848;51.938;15.520;2023-07-20T08:25:36;19.09;75.33
70421;SHT31;57848;51.938;15.520;2023-07-20T08:28:02;19.27;73.99
70421;SHT31;57848;51.938;15.520;2023-07-20T08:33:07;19.36;74.18
70421;SHT31;57848;51.938;15.520;2023-07-20T08:35:33;19.53;73.42
70421;SHT31;57848;51.938;15.520;2023-07-20T08:37:59;19.40;72.00
70421;SHT31;57848;51.938;15.520;2023-07-20T08:40:24;19.28;72.61
70421;SHT31;57848;51.938;15.520;2023-07-20T08:42:50;19.34;72.04
70421;SHT31;57848;51.938;15.520;2023-07-20T08:45:17;19.54;72.50
70421;SHT31;57848;51.938;15.520;2023-07-20T08:47:43;19.49;72.56
70421;SHT31;57848;51.938;15.520;2023-07-20T08:50:11;19.38;73.55
70421;SHT31;57848;51.938;15.520;2023-07-20T08:52:36;19.15;70.79
70421;SHT31;57848;51.938;15.520;2023-07-20T08:55:02;19.06;69.39
70421;SHT31;57848;51.938;15.520;2023-07-20T08:57:33;19.07;69.54
70421;SHT31;57848;51.938;15.520;2023-07-20T09:00:03;19.36;69.15
70421;SHT31;57848;51.938;15.520;2023-07-20T09:02:35;19.43;68.84
70421;SHT31;57848;51.938;15.520;2023-07-20T09:05:04;19.67;69.69
70421;SHT31;57848;51.938;15.520;2023-07-20T09:07:30;19.81;68.20
70421;SHT31;57848;51.938;15.520;2023-07-20T09:09:57;19.89;68.58
70421;SHT31;57848;51.938;15.520;2023-07-20T09:12:23;19.99;68.26
70421;SHT31;57848;51.938;15.520;2023-07-20T09:14:48;20.16;67.62
70421;SHT31;57848;51.938;15.520;2023-07-20T09:17:14;20.45;65.31
70421;SHT31;57848;51.938;15.520;2023-07-20T09:19:49;20.53;65.87
70421;SHT31;57848;51.938;15.520;2023-07-20T09:22:15;20.88;64.83
70421;SHT31;57848;51.938;15.520;2023-07-20T09:24:40;21.03;63.12
70421;SHT31;57848;51.938;15.520;2023-07-20T09:27:07;21.11;62.62
70421;SHT31;57848;51.938;15.520;2023-07-20T09:29:51;21.18;63.29
70421;SHT31;57848;51.938;15.520;2023-07-20T09:32:21;21.23;62.29
70421;SHT31;57848;51.938;15.520;2023-07-20T09:34:46;21.10;63.77
70421;SHT31;57848;51.938;15.520;2023-07-20T09:37:12;21.00;62.76
70421;SHT31;57848;51.938;15.520;2023-07-20T09:39:44;20.83;63.12
70421;SHT31;57848;51.938;15.520;2023-07-20T09:42:12;20.95;62.82
70421;SHT31;57848;51.938;15.520;2023-07-20T09:44:38;21.01;64.84
70421;SHT31;57848;51.938;15.520;2023-07-20T09:47:05;21.17;64.34
70421;SHT31;57848;51.938;15.520;2023-07-20T09:49:30;21.14;63.96
70421;SHT31;57848;51.938;15.520;2023-07-20T09:51:57;21.04;63.69
70421;SHT31;57848;51.938;15.520;2023-07-20T09:54:24;20.93;64.06
70421;SHT31;57848;51.938;15.520;2023-07-20T09:56:50;20.63;64.62
70421;SHT31;57848;51.938;15.520;2023-07-20T09:59:16;20.76;65.22
70421;SHT31;57848;51.938;15.520;2023-07-20T10:01:43;20.88;65.51
70421;SHT31;57848;51.938;15.520;2023-07-20T10:04:11;21.18;63.50
70421;SHT31;57848;51.938;15.520;2023-07-20T10:06:40;21.35;63.39
70421;SHT31;57848;51.938;15.520;2023-07-20T10:09:07;21.48;63.21
70421;SHT31;57848;51.938;15.520;2023-07-20T10:11:36;21.58;61.08
70421;SHT31;57848;51.938;15.520;2023-07-20T10:14:04;21.27;61.44
70421;SHT31;57848;51.938;15.520;2023-07-20T10:16:39;21.03;62.34
70421;SHT31;57848;51.938;15.520;2023-07-20T10:19:23;20.59;64.03
70421;SHT31;57848;51.938;15.520;2023-07-20T10:21:56;20.49;64.95
70421;SHT31;57848;51.938;15.520;2023-07-20T10:24:25;20.76;64.65
70421;SHT31;57848;51.938;15.520;2023-07-20T10:26:51;20.98;64.02
70421;SHT31;57848;51.938;15.520;2023-07-20T10:29:17;21.12;63.23
70421;SHT31;57848;51.938;15.520;2023-07-20T10:31:42;21.24;62.84
70421;SHT31;57848;51.938;15.520;2023-07-20T10:34:08;22.12;60.80
70421;SHT31;57848;51.938;15.520;2023-07-20T10:36:43;22.07;61.00
70421;SHT31;57848;51.938;15.520;2023-07-20T10:39:24;22.36;60.19
70421;SHT31;57848;51.938;15.520;2023-07-20T10:42:00;23.08;58.32
70421;SHT31;57848;51.938;15.520;2023-07-20T10:44:27;22.95;57.48
70421;SHT31;57848;51.938;15.520;2023-07-20T10:46:59;24.65;54.77
70421;SHT31;57848;51.938;15.520;2023-07-20T10:49:25;25.48;51.35
70421;SHT31;57848;51.938;15.520;2023-07-20T10:51:58;27.04;48.93
70421;SHT31;57848;51.938;15.520;2023-07-20T10:56:49;28.68;46.42
70421;SHT31;57848;51.938;15.520;2023-07-20T11:01:50;25.92;48.40
70421;SHT31;57848;51.938;15.520;2023-07-20T11:04:43;24.96;51.20
70421;SHT31;57848;51.938;15.520;2023-07-20T11:07:09;25.51;50.34
70421;SHT31;57848;51.938;15.520;2023-07-20T11:09:38;26.20;49.49
70421;SHT31;57848;51.938;15.520;2023-07-20T11:12:13;28.03;46.11
70421;SHT31;57848;51.938;15.520;2023-07-20T11:14:55;29.22;43.53
70421;SHT31;57848;51.938;15.520;2023-07-20T11:17:29;29.31;42.02
70421;SHT31;57848;51.938;15.520;2023-07-20T11:19:59;28.14;44.21
70421;SHT31;57848;51.938;15.520;2023-07-20T11:22:26;27.21;44.46
70421;SHT31;57848;51.938;15.520;2023-07-20T11:24:55;26.44;46.50
70421;SHT31;57848;51.938;15.520;2023-07-20T11:27:20;25.68;48.87
70421;SHT31;57848;51.938;15.520;2023-07-20T11:29:47;25.45;49.14
70421;SHT31;57848;51.938;15.520;2023-07-20T11:32:20;24.52;52.00
70421;SHT31;57848;51.938;15.520;2023-07-20T11:34:47;24.02;53.34
70421;SHT31;57848;51.938;15.520;2023-07-20T11:37:12;23.82;53.59
70421;SHT31;57848;51.938;15.520;2023-07-20T11:39:38;24.53;51.11
70421;SHT31;57848;51.938;15.520;2023-07-20T11:42:04;24.90;49.97
70421;SHT31;57848;51.938;15.520;2023-07-20T11:44:30;26.67;47.08
70421;SHT31;57848;51.938;15.520;2023-07-20T11:47:05;27.84;43.91
70421;SHT31;57848;51.938;15.520;2023-07-20T11:49:39;29.12;41.70
70421;SHT31;57848;51.938;15.520;2023-07-20T11:52:06;29.47;40.15
70421;SHT31;57848;51.938;15.520;2023-07-20T11:54:32;29.46;39.60
70421;SHT31;57848;51.938;15.520;2023-07-20T11:57:03;29.71;39.59
70421;SHT31;57848;51.938;15.520;2023-07-20T11:59:30;29.13;41.09
70421;SHT31;57848;51.938;15.520;2023-07-20T12:01:56;28.79;41.37
70421;SHT31;57848;51.938;15.520;2023-07-20T12:04:22;27.79;42.64
70421;SHT31;57848;51.938;15.520;2023-07-20T12:06:48;27.09;45.22
70421;SHT31;57848;51.938;15.520;2023-07-20T12:09:14;26.54;45.55
70421;SHT31;57848;51.938;15.520;2023-07-20T12:11:43;25.71;46.60
70421;SHT31;57848;51.938;15.520;2023-07-20T12:14:09;24.89;48.12
70421;SHT31;57848;51.938;15.520;2023-07-20T12:16:36;24.70;49.11
70421;SHT31;57848;51.938;15.520;2023-07-20T12:19:08;25.44;48.29
70421;SHT31;57848;51.938;15.520;2023-07-20T12:21:34;25.59;48.08
70421;SHT31;57848;51.938;15.520;2023-07-20T12:24:02;26.23;47.28
70421;SHT31;57848;51.938;15.520;2023-07-20T12:26:29;26.29;47.33
70421;SHT31;57848;51.938;15.520;2023-07-20T12:28:55;25.65;47.38
70421;SHT31;57848;51.938;15.520;2023-07-20T12:31:22;24.89;47.57
70421;SHT31;57848;51.938;15.520;2023-07-20T12:33:49;24.18;49.36
70421;SHT31;57848;51.938;15.520;2023-07-20T12:36:14;23.75;51.23
70421;SHT31;57848;51.938;15.520;2023-07-20T12:38:40;23.67;51.48
70421;SHT31;57848;51.938;15.520;2023-07-20T12:41:07;23.73;51.95
70421;SHT31;57848;51.938;15.520;2023-07-20T12:43:33;23.93;51.32
70421;SHT31;57848;51.938;15.520;2023-07-20T12:45:59;24.22;51.16
70421;SHT31;57848;51.938;15.520;2023-07-20T12:48:25;25.34;48.12
70421;SHT31;57848;51.938;15.520;2023-07-20T12:50:50;27.12;44.41
70421;SHT31;57848;51.938;15.520;2023-07-20T12:53:16;28.10;42.64
70421;SHT31;57848;51.938;15.520;2023-07-20T12:55:41;29.65;40.13
70421;SHT31;57848;51.938;15.520;2023-07-20T12:58:07;29.43;39.93
70421;SHT31;57848;51.938;15.520;2023-07-20T13:00:32;27.19;42.07
70421;SHT31;57848;51.938;15.520;2023-07-20T13:02:58;28.52;40.88
70421;SHT31;57848;51.938;15.520;2023-07-20T13:05:23;29.20;40.64
70421;SHT31;57848;51.938;15.520;2023-07-20T13:07:49;28.38;40.33
70421;SHT31;57848;51.938;15.520;2023-07-20T13:10:14;28.14;41.60
70421;SHT31;57848;51.938;15.520;2023-07-20T13:12:41;29.14;40.03
70421;SHT31;57848;51.938;15.520;2023-07-20T13:15:08;28.28;41.63
70421;SHT31;57848;51.938;15.520;2023-07-20T13:17:35;28.27;42.28
70421;SHT31;57848;51.938;15.520;2023-07-20T13:20:01;28.18;42.20
70421;SHT31;57848;51.938;15.520;2023-07-20T13:22:27;27.76;42.45
70421;SHT31;57848;51.938;15.520;2023-07-20T13:24:52;26.74;42.73
70421;SHT31;57848;51.938;15.520;2023-07-20T13:27:18;26.12;43.79
70421;SHT31;57848;51.938;15.520;2023-07-20T13:29:44;25.71;44.87
70421;SHT31;57848;51.938;15.520;2023-07-20T13:32:13;25.42;46.20
70421;SHT31;57848;51.938;15.520;2023-07-20T13:34:38;25.40;46.88
70421;SHT31;57848;51.938;15.520;2023-07-20T13:37:04;25.96;46.09
70421;SHT31;57848;51.938;15.520;2023-07-20T13:39:30;27.79;42.16
70421;SHT31;57848;51.938;15.520;2023-07-20T13:41:55;27.92;42.68
70421;SHT31;57848;51.938;15.520;2023-07-20T13:44:21;26.94;42.19
70421;SHT31;57848;51.938;15.520;2023-07-20T13:46:47;26.23;43.51
70421;SHT31;57848;51.938;15.520;2023-07-20T13:49:12;25.93;44.95
70421;SHT31;57848;51.938;15.520;2023-07-20T13:51:37;26.08;44.95
70421;SHT31;57848;51.938;15.520;2023-07-20T13:54:03;27.79;41.97
70421;SHT31;57848;51.938;15.520;2023-07-20T13:56:29;27.57;41.55
70421;SHT31;57848;51.938;15.520;2023-07-20T13:58:54;26.58;42.84
70421;SHT31;57848;51.938;15.520;2023-07-20T14:01:19;26.29;43.91
70421;SHT31;57848;51.938;15.520;2023-07-20T14:03:45;25.88;44.56
70421;SHT31;57848;51.938;15.520;2023-07-20T14:06:10;25.65;45.10
70421;SHT31;57848;51.938;15.520;2023-07-20T14:08:38;25.54;45.51
70421;SHT31;57848;51.938;15.520;2023-07-20T14:11:03;25.41;46.00
70421;SHT31;57848;51.938;15.520;2023-07-20T14:13:29;25.18;46.50
70421;SHT31;57848;51.938;15.520;2023-07-20T14:15:54;24.90;46.77
70421;SHT31;57848;51.938;15.520;2023-07-20T14:18:19;24.60;47.41
70421;SHT31;57848;51.938;15.520;2023-07-20T14:20:45;24.75;47.85
70421;SHT31;57848;51.938;15.520;2023-07-20T14:23:10;24.45;48.07
70421;SHT31;57848;51.938;15.520;2023-07-20T14:25:36;24.41;48.35
70421;SHT31;57848;51.938;15.520;2023-07-20T14:28:01;24.47;48.27
70421;SHT31;57848;51.938;15.520;2023-07-20T14:30:27;24.41;48.29
70421;SHT31;57848;51.938;15.520;2023-07-20T14:32:52;24.25;48.35
70421;SHT31;57848;51.938;15.520;2023-07-20T14:35:18;24.14;48.24
70421;SHT31;57848;51.938;15.520;2023-07-20T14:37:43;24.08;48.39
70421;SHT31;57848;51.938;15.520;2023-07-20T14:40:12;24.48;47.73
70421;SHT31;57848;51.938;15.520;2023-07-20T14:42:37;24.38;47.92
70421;SHT31;57848;51.938;15.520;2023-07-20T14:45:04;24.60;47.74
70421;SHT31;57848;51.938;15.520;2023-07-20T14:47:30;24.51;47.23
70421;SHT31;57848;51.938;15.520;2023-07-20T14:49:58;24.59;48.07
70421;SHT31;57848;51.938;15.520;2023-07-20T14:52:23;24.22;48.05
70421;SHT31;57848;51.938;15.520;2023-07-20T14:54:48;24.04;48.39
70421;SHT31;57848;51.938;15.520;2023-07-20T14:57:14;24.00;48.55
70421;SHT31;57848;51.938;15.520;2023-07-20T14:59:40;24.21;48.99
70421;SHT31;57848;51.938;15.520;2023-07-20T15:02:07;24.29;48.11
70421;SHT31;57848;51.938;15.520;2023-07-20T15:04:33;23.91;49.07
70421;SHT31;57848;51.938;15.520;2023-07-20T15:06:58;23.96;48.94
70421;SHT31;57848;51.938;15.520;2023-07-20T15:09:23;23.75;50.27
70421;SHT31;57848;51.938;15.520;2023-07-20T15:11:49;23.60;49.69
70421;SHT31;57848;51.938;15.520;2023-07-20T15:14:14;23.51;50.06
70421;SHT31;57848;51.938;15.520;2023-07-20T15:16:39;23.53;49.75
70421;SHT31;57848;51.938;15.520;2023-07-20T15:19:05;23.19;50.49
70421;SHT31;57848;51.938;15.520;2023-07-20T15:21:31;23.26;50.37
70421;SHT31;57848;51.938;15.520;2023-07-20T15:23:58;23.24;50.00
70421;SHT31;57848;51.938;15.520;2023-07-20T15:26:23;23.60;49.48